Time;durP1;ratioP1;P1;durP2;ratioP2;P2;SDS_P1;SDS_P2;PMS_P1;PMS_P2;Temp;Humidity;BMP_temperature;BMP_pressure;BME280_temperature;BME280_humidity;BME280_pressure;Samples;Min_cycle;Max_cycle;Signal;HPM_P1;HPM_P2
2022/01/08 00:01:09;;;;;;;;;;;5.90;91.30;;;;;;4928256;29;19923;-62
2022/01/08 00:03:35;;;;;;;;;;;5.90;91.30;;;;;;4920359;29;20063;-62
2022/01/08 00:06:00;;;;;;;;;;;5.90;91.30;;;;;;4945544;28;20014;-61
2022/01/08 00:08:25;;;;;;;;;;;5.90;91.30;;;;;;4942182;28;19922;-61
2022/01/08 00:10:53;;;;;;;;;;;5.80;91.30;;;;;;4910874;28;19997;-62
2022/01/08 00:13:19;;;;;;;;;;;5.80;91.30;;;;;;4942093;29;19922;-61
2022/01/08 00:15:44;;;;;;;;;;;5.80;91.30;;;;;;4937780;28;19942;-61
2022/01/08 00:18:10;;;;;;;;;;;5.80;91.40;;;;;;4946441;29;19915;-61
2022/01/08 00:20:35;;;;;;;;;;;5.80;91.40;;;;;;4928219;29;20014;-61
2022/01/08 00:23:01;;;;;;;;;;;5.80;91.40;;;;;;4954267;28;19910;-64
2022/01/08 00:25:27;;;;;;;;;;;5.80;91.40;;;;;;4932601;28;19910;-62
2022/01/08 00:27:52;;;;;;;;;;;5.80;91.40;;;;;;4943656;28;19922;-61
2022/01/08 00:30:17;;;;;;;;;;;5.80;91.50;;;;;;4932733;28;20251;-61
2022/01/08 00:32:43;;;;;;;;;;;5.80;91.50;;;;;;4948240;28;19918;-62
2022/01/08 00:35:09;;;;;;;;;;;5.80;91.50;;;;;;4937076;28;19915;-60
2022/01/08 00:37:37;;;;;;;;;;;5.80;91.50;;;;;;4948920;28;19914;-61
2022/01/08 00:40:04;;;;;;;;;;;5.70;91.50;;;;;;4958714;28;19932;-61
2022/01/08 00:42:29;;;;;;;;;;;5.80;91.50;;;;;;4930813;28;20251;-62
2022/01/08 00:44:54;;;;;;;;;;;5.80;91.50;;;;;;4956489;28;19961;-61
2022/01/08 00:47:20;;;;;;;;;;;5.70;91.80;;;;;;4930965;29;19930;-61
2022/01/08 00:49:45;;;;;;;;;;;5.70;91.50;;;;;;4923855;28;20232;-62
2022/01/08 00:52:11;;;;;;;;;;;5.70;91.50;;;;;;4946092;29;19915;-61
2022/01/08 00:54:38;;;;;;;;;;;5.70;91.50;;;;;;4930304;28;19918;-61
2022/01/08 00:57:04;;;;;;;;;;;5.70;91.50;;;;;;4922978;29;19919;-62
2022/01/08 00:59:29;;;;;;;;;;;5.70;91.50;;;;;;4946286;28;19921;-61
2022/01/08 01:01:55;;;;;;;;;;;5.70;91.50;;;;;;4915503;29;19975;-62
2022/01/08 01:04:20;;;;;;;;;;;5.70;91.50;;;;;;4925119;29;19914;-61
2022/01/08 01:06:46;;;;;;;;;;;5.70;91.80;;;;;;4947666;28;20308;-62
2022/01/08 01:09:13;;;;;;;;;;;5.70;91.50;;;;;;4942506;29;20401;-61
2022/01/08 01:11:38;;;;;;;;;;;5.70;91.40;;;;;;4920695;29;20282;-61
2022/01/08 01:14:04;;;;;;;;;;;5.70;91.40;;;;;;4906178;28;19922;-62
2022/01/08 01:16:29;;;;;;;;;;;5.70;91.40;;;;;;4928415;29;19911;-61
2022/01/08 01:18:56;;;;;;;;;;;5.70;91.40;;;;;;4907001;29;19911;-61
2022/01/08 01:21:21;;;;;;;;;;;5.70;91.40;;;;;;4922346;29;20013;-62
2022/01/08 01:23:48;;;;;;;;;;;5.70;91.40;;;;;;4932957;29;20005;-61
2022/01/08 01:26:18;;;;;;;;;;;5.70;91.40;;;;;;4933409;28;20385;-62
2022/01/08 01:29:03;;;;;;;;;;;5.70;91.40;;;;;;4917188;28;20478;-61
2022/01/08 01:43:04;;;;;;;;;;;5.70;91.30;;;;;;4928453;28;19942;-61
2022/01/08 01:48:08;;;;;;;;;;;5.60;91.30;;;;;;4922341;29;19929;-61
2022/01/08 01:50:33;;;;;;;;;;;5.60;91.30;;;;;;4918316;29;19911;-61
2022/01/08 01:52:59;;;;;;;;;;;5.60;91.30;;;;;;4916948;29;19917;-61
2022/01/08 01:55:24;;;;;;;;;;;5.60;91.30;;;;;;4961761;28;20357;-61
2022/01/08 01:57:51;;;;;;;;;;;5.60;91.30;;;;;;4927361;29;20006;-62
2022/01/08 02:00:17;;;;;;;;;;;5.90;91.40;;;;;;4917829;28;20017;-61
2022/01/08 02:02:42;;;;;;;;;;;5.60;91.30;;;;;;4907914;28;20040;-61
2022/01/08 02:05:08;;;;;;;;;;;5.60;91.30;;;;;;4932039;28;19910;-60
2022/01/08 02:07:33;;;;;;;;;;;5.60;91.30;;;;;;4928976;28;20012;-61
2022/01/08 02:09:59;;;;;;;;;;;5.60;91.30;;;;;;4936498;29;20422;-61
2022/01/08 02:12:24;;;;;;;;;;;5.60;91.30;;;;;;4929656;29;19922;-61
2022/01/08 02:14:50;;;;;;;;;;;5.60;91.30;;;;;;4920464;29;20362;-61
2022/01/08 02:17:16;;;;;;;;;;;5.60;91.30;;;;;;4930641;28;19914;-61
2022/01/08 02:19:41;;;;;;;;;;;5.60;91.30;;;;;;4918484;29;19931;-60
2022/01/08 02:22:10;;;;;;;;;;;5.60;91.30;;;;;;4950611;28;20252;-61
2022/01/08 02:24:35;;;;;;;;;;;5.60;91.30;;;;;;4933817;29;19995;-62
2022/01/08 02:27:01;;;;;;;;;;;5.60;91.40;;;;;;4917744;28;20031;-62
2022/01/08 02:29:26;;;;;;;;;;;5.60;91.30;;;;;;4920362;29;19915;-61
2022/01/08 02:31:59;;;;;;;;;;;5.60;91.40;;;;;;4941940;28;19918;-61
2022/01/08 02:34:26;;;;;;;;;;;5.60;91.30;;;;;;4926295;28;20386;-61
2022/01/08 02:36:52;;;;;;;;;;;5.60;91.40;;;;;;4918738;28;19949;-61
2022/01/08 02:39:17;;;;;;;;;;;5.50;91.30;;;;;;4919329;28;19926;-61
2022/01/08 02:41:43;;;;;;;;;;;5.60;91.40;;;;;;4933201;28;19915;-61
2022/01/08 02:44:08;;;;;;;;;;;5.60;91.40;;;;;;4945174;28;19918;-61
2022/01/08 02:46:34;;;;;;;;;;;5.80;91.40;;;;;;4920211;29;19951;-61
2022/01/08 02:48:59;;;;;;;;;;;5.50;91.40;;;;;;4920315;28;20370;-61
2022/01/08 02:51:25;;;;;;;;;;;5.60;91.40;;;;;;4969251;28;19974;-61
2022/01/08 02:53:50;;;;;;;;;;;5.50;91.40;;;;;;4912621;28;19918;-62
2022/01/08 02:56:16;;;;;;;;;;;5.60;91.40;;;;;;4931656;28;20383;-61
2022/01/08 02:58:41;;;;;;;;;;;5.50;91.40;;;;;;4944834;28;19918;-61
2022/01/08 03:01:07;;;;;;;;;;;5.50;91.40;;;;;;4921022;28;19914;-61
2022/01/08 03:03:32;;;;;;;;;;;5.60;91.50;;;;;;4928118;28;19915;-62
2022/01/08 03:05:58;;;;;;;;;;;5.50;91.50;;;;;;4917608;28;20029;-61
2022/01/08 03:08:23;;;;;;;;;;;5.50;91.50;;;;;;4961694;28;19922;-61
2022/01/08 03:10:49;;;;;;;;;;;5.50;91.80;;;;;;4939166;29;19919;-61
2022/01/08 03:13:14;;;;;;;;;;;5.50;91.50;;;;;;4918458;28;20511;-61
2022/01/08 03:15:39;;;;;;;;;;;5.50;91.50;;;;;;4916439;28;19914;-61
2022/01/08 03:18:05;;;;;;;;;;;5.50;91.50;;;;;;4913700;29;19915;-61
2022/01/08 03:20:31;;;;;;;;;;;5.50;91.50;;;;;;4932855;28;19925;-61
2022/01/08 03:23:02;;;;;;;;;;;5.50;91.50;;;;;;4926513;29;19922;-61
2022/01/08 03:25:28;;;;;;;;;;;5.50;91.60;;;;;;4918318;28;20344;-61
2022/01/08 03:27:54;;;;;;;;;;;5.50;91.60;;;;;;4944478;28;19923;-61
2022/01/08 03:30:20;;;;;;;;;;;5.50;91.60;;;;;;4921136;28;20426;-61
2022/01/08 03:32:45;;;;;;;;;;;5.50;91.60;;;;;;4915153;28;19918;-61
2022/01/08 03:35:11;;;;;;;;;;;5.50;91.70;;;;;;4939113;28;20369;-61
2022/01/08 03:37:36;;;;;;;;;;;5.50;91.70;;;;;;4936060;28;19910;-61
2022/01/08 03:40:02;;;;;;;;;;;5.50;91.70;;;;;;4944634;28;20294;-61
2022/01/08 03:42:28;;;;;;;;;;;5.50;91.70;;;;;;4941616;28;20375;-60
2022/01/08 03:44:53;;;;;;;;;;;5.50;91.80;;;;;;4936189;28;19925;-61
2022/01/08 03:47:31;;;;;;;;;;;5.40;91.80;;;;;;4947485;28;20346;-61
2022/01/08 03:49:57;;;;;;;;;;;5.40;91.80;;;;;;4945782;28;19969;-62
2022/01/08 03:52:22;;;;;;;;;;;5.50;91.80;;;;;;4942501;28;20326;-62
2022/01/08 03:54:47;;;;;;;;;;;5.50;91.80;;;;;;4936085;28;19914;-61
2022/01/08 03:57:13;;;;;;;;;;;5.40;91.80;;;;;;4928246;28;19921;-61
2022/01/08 03:59:38;;;;;;;;;;;5.40;91.80;;;;;;4940858;28;19922;-61
2022/01/08 04:02:04;;;;;;;;;;;5.40;91.90;;;;;;4920575;29;20371;-62
2022/01/08 04:04:29;;;;;;;;;;;5.40;91.90;;;;;;4931538;28;19941;-61
2022/01/08 04:06:55;;;;;;;;;;;5.50;91.90;;;;;;4936699;28;19911;-61
2022/01/08 04:09:20;;;;;;;;;;;5.40;91.80;;;;;;4940662;28;20366;-61
2022/01/08 04:11:46;;;;;;;;;;;5.40;91.80;;;;;;4941947;28;19993;-61
2022/01/08 04:14:13;;;;;;;;;;;5.40;91.80;;;;;;4928380;28;20346;-61
2022/01/08 04:16:42;;;;;;;;;;;5.40;91.80;;;;;;4926494;28;19910;-62
2022/01/08 04:19:08;;;;;;;;;;;5.40;91.80;;;;;;4924922;28;19980;-61
2022/01/08 04:24:00;;;;;;;;;;;5.40;91.80;;;;;;4940376;28;19914;-60
2022/01/08 04:26:26;;;;;;;;;;;5.40;91.80;;;;;;4947314;29;19911;-61
2022/01/08 04:28:52;;;;;;;;;;;5.40;92.00;;;;;;4921255;28;19933;-61
2022/01/08 04:31:18;;;;;;;;;;;5.40;92.00;;;;;;4928557;29;19989;-61
2022/01/08 04:33:43;;;;;;;;;;;5.40;92.20;;;;;;4913876;28;19945;-61
2022/01/08 04:36:09;;;;;;;;;;;5.40;92.20;;;;;;4913224;29;19926;-61
2022/01/08 04:38:34;;;;;;;;;;;5.40;92.20;;;;;;4944051;28;20389;-61
2022/01/08 04:41:00;;;;;;;;;;;5.40;92.50;;;;;;4922638;29;19919;-60
2022/01/08 04:43:26;;;;;;;;;;;5.40;92.30;;;;;;4909994;28;19925;-61
2022/01/08 04:45:52;;;;;;;;;;;5.40;92.40;;;;;;4945433;28;20370;-61
2022/01/08 04:48:17;;;;;;;;;;;5.40;92.40;;;;;;4914533;28;19945;-60
2022/01/08 04:50:43;;;;;;;;;;;5.40;92.40;;;;;;4940903;28;20371;-63
2022/01/08 04:53:08;;;;;;;;;;;5.40;92.40;;;;;;4922866;29;20384;-60
2022/01/08 04:55:34;;;;;;;;;;;5.40;92.50;;;;;;4921566;29;19911;-61
2022/01/08 04:57:59;;;;;;;;;;;5.40;92.50;;;;;;4940742;28;20286;-61
2022/01/08 05:00:25;;;;;;;;;;;5.40;92.40;;;;;;4934003;28;19926;-61
2022/01/08 05:02:50;;;;;;;;;;;5.40;92.40;;;;;;4948384;28;20268;-60
2022/01/08 05:05:15;;;;;;;;;;;5.40;92.40;;;;;;4950046;28;19915;-60
2022/01/08 05:07:41;;;;;;;;;;;5.40;92.40;;;;;;4917232;28;19926;-61
2022/01/08 05:10:06;;;;;;;;;;;5.40;92.40;;;;;;4942371;28;19910;-61
2022/01/08 05:12:32;;;;;;;;;;;5.40;92.40;;;;;;4921844;28;19973;-61
2022/01/08 05:14:58;;;;;;;;;;;5.40;92.40;;;;;;4921089;29;19914;-61
2022/01/08 05:17:29;;;;;;;;;;;5.40;92.40;;;;;;4920249;28;19918;-61
2022/01/08 05:19:57;;;;;;;;;;;5.50;92.40;;;;;;4925499;28;19922;-60
2022/01/08 05:22:28;;;;;;;;;;;5.40;92.40;;;;;;4936789;28;20355;-61
2022/01/08 05:24:54;;;;;;;;;;;5.40;92.40;;;;;;4926607;29;19910;-60
2022/01/08 05:27:19;;;;;;;;;;;5.40;92.40;;;;;;4925685;28;19918;-62
2022/01/08 05:29:45;;;;;;;;;;;5.40;92.40;;;;;;4931697;28;19921;-61
2022/01/08 05:32:16;;;;;;;;;;;5.40;92.40;;;;;;4940482;28;19980;-61
2022/01/08 05:34:42;;;;;;;;;;;5.40;92.50;;;;;;4909365;29;19919;-61
2022/01/08 05:37:08;;;;;;;;;;;5.40;92.50;;;;;;4926541;28;19914;-61
2022/01/08 05:39:34;;;;;;;;;;;5.40;92.50;;;;;;4939315;29;19915;-61
2022/01/08 05:41:59;;;;;;;;;;;5.40;92.50;;;;;;4924811;28;19922;-61
2022/01/08 05:44:24;;;;;;;;;;;5.40;92.50;;;;;;4919548;29;19977;-60
2022/01/08 05:46:50;;;;;;;;;;;5.40;92.60;;;;;;4909047;28;19911;-60
2022/01/08 05:49:17;;;;;;;;;;;5.40;92.60;;;;;;4927835;28;19918;-61
2022/01/08 05:51:43;;;;;;;;;;;5.40;92.60;;;;;;4930098;28;19918;-61
2022/01/08 05:54:08;;;;;;;;;;;5.40;92.60;;;;;;4933866;29;20010;-61
2022/01/08 05:56:34;;;;;;;;;;;5.40;92.90;;;;;;4918176;29;19938;-60
2022/01/08 05:58:59;;;;;;;;;;;5.40;92.60;;;;;;4933738;29;20006;-61
2022/01/08 06:01:25;;;;;;;;;;;5.40;92.60;;;;;;4905976;29;20405;-61
2022/01/08 06:03:50;;;;;;;;;;;5.40;92.70;;;;;;4932007;29;19925;-61
2022/01/08 06:06:16;;;;;;;;;;;5.40;92.70;;;;;;4917563;29;20382;-62
2022/01/08 06:08:41;;;;;;;;;;;5.30;92.70;;;;;;4917000;29;19949;-61
2022/01/08 06:11:06;;;;;;;;;;;5.40;92.80;;;;;;4917310;29;20441;-61
2022/01/08 06:13:32;;;;;;;;;;;5.30;92.80;;;;;;4931634;28;19915;-60
2022/01/08 06:15:57;;;;;;;;;;;5.40;92.90;;;;;;4917169;29;20439;-61
2022/01/08 06:18:23;;;;;;;;;;;5.30;92.80;;;;;;4933941;29;19914;-61
2022/01/08 06:20:48;;;;;;;;;;;5.30;92.90;;;;;;4951293;28;19933;-61
2022/01/08 06:23:14;;;;;;;;;;;5.30;92.90;;;;;;4933751;29;19914;-61
2022/01/08 06:25:43;;;;;;;;;;;5.30;92.90;;;;;;4917346;29;19969;-61
2022/01/08 06:28:11;;;;;;;;;;;5.30;92.90;;;;;;4949104;28;19918;-61
2022/01/08 06:30:37;;;;;;;;;;;5.30;93.00;;;;;;4912421;29;20389;-61
2022/01/08 06:33:02;;;;;;;;;;;5.30;93.00;;;;;;4947167;28;19919;-62
2022/01/08 06:35:28;;;;;;;;;;;5.30;93.00;;;;;;4916808;29;20440;-60
2022/01/08 06:37:53;;;;;;;;;;;5.30;93.00;;;;;;4915937;29;19923;-61
2022/01/08 06:40:18;;;;;;;;;;;5.30;93.10;;;;;;4916626;29;19917;-62
2022/01/08 06:42:44;;;;;;;;;;;5.40;93.10;;;;;;4913065;28;19979;-61
2022/01/08 06:45:09;;;;;;;;;;;5.40;93.10;;;;;;4934515;29;19915;-61
2022/01/08 06:47:35;;;;;;;;;;;5.30;93.10;;;;;;4933159;29;19966;-60
2022/01/08 06:50:00;;;;;;;;;;;5.30;93.10;;;;;;4915398;29;20006;-62
2022/01/08 06:52:26;;;;;;;;;;;5.40;93.10;;;;;;4911914;29;20213;-60
2022/01/08 06:54:52;;;;;;;;;;;5.30;93.00;;;;;;4922290;29;20018;-60
2022/01/08 06:57:17;;;;;;;;;;;5.40;93.00;;;;;;4928816;29;19923;-62
2022/01/08 06:59:43;;;;;;;;;;;5.30;93.00;;;;;;4917479;29;19911;-61
2022/01/08 07:02:08;;;;;;;;;;;5.30;93.00;;;;;;4931518;29;19918;-61
2022/01/08 07:04:34;;;;;;;;;;;5.30;93.00;;;;;;4933070;28;19911;-62
2022/01/08 07:06:59;;;;;;;;;;;5.30;93.00;;;;;;4923261;28;20005;-61
2022/01/08 07:09:25;;;;;;;;;;;5.30;93.00;;;;;;4919562;29;19911;-61
2022/01/08 07:11:50;;;;;;;;;;;5.40;93.00;;;;;;4930869;28;19927;-62
2022/01/08 07:14:16;;;;;;;;;;;5.40;93.00;;;;;;4921951;28;19918;-60
2022/01/08 07:16:41;;;;;;;;;;;5.30;92.90;;;;;;4912847;28;19938;-62
2022/01/08 07:19:07;;;;;;;;;;;5.40;92.90;;;;;;4925184;28;19910;-62
2022/01/08 07:21:32;;;;;;;;;;;5.30;92.90;;;;;;4944723;29;19929;-60
2022/01/08 07:23:58;;;;;;;;;;;5.30;92.90;;;;;;4928987;28;19910;-61
2022/01/08 07:26:23;;;;;;;;;;;5.30;92.90;;;;;;4936915;28;19914;-62
2022/01/08 07:28:48;;;;;;;;;;;5.40;93.00;;;;;;4913303;28;19923;-61
2022/01/08 07:31:14;;;;;;;;;;;5.30;92.90;;;;;;4913895;29;19914;-61
2022/01/08 07:33:39;;;;;;;;;;;5.30;92.90;;;;;;4936416;29;19921;-62
2022/01/08 07:36:05;;;;;;;;;;;5.40;93.00;;;;;;4917082;29;20038;-62
2022/01/08 07:38:30;;;;;;;;;;;5.40;93.00;;;;;;4942237;28;19910;-62
2022/01/08 07:40:56;;;;;;;;;;;5.30;92.90;;;;;;4909645;29;19923;-61
2022/01/08 07:43:21;;;;;;;;;;;5.40;92.90;;;;;;4955137;28;19914;-61
2022/01/08 07:45:47;;;;;;;;;;;5.30;92.90;;;;;;4926215;28;19925;-61
2022/01/08 07:48:13;;;;;;;;;;;5.40;92.90;;;;;;4937187;29;20334;-61
2022/01/08 07:50:38;;;;;;;;;;;5.40;92.90;;;;;;4906716;29;20014;-61
2022/01/08 07:53:04;;;;;;;;;;;5.40;92.90;;;;;;4911919;29;20008;-61
2022/01/08 07:55:29;;;;;;;;;;;5.40;92.90;;;;;;4930384;29;19919;-63
2022/01/08 07:57:55;;;;;;;;;;;5.30;92.80;;;;;;4935917;29;20049;-62
2022/01/08 08:00:20;;;;;;;;;;;5.40;92.90;;;;;;4925856;28;19915;-61
2022/01/08 08:02:46;;;;;;;;;;;5.30;92.90;;;;;;4927499;29;19914;-62
2022/01/08 08:05:11;;;;;;;;;;;5.30;93.20;;;;;;4921979;29;19915;-63
2022/01/08 08:07:37;;;;;;;;;;;5.40;93.00;;;;;;4916669;28;19922;-62
2022/01/08 08:10:04;;;;;;;;;;;5.30;92.90;;;;;;4933498;29;19914;-60
2022/01/08 08:12:29;;;;;;;;;;;5.30;92.90;;;;;;4915693;28;19929;-61
2022/01/08 08:14:54;;;;;;;;;;;5.30;92.90;;;;;;4917242;29;19910;-62
2022/01/08 08:17:20;;;;;;;;;;;5.30;92.90;;;;;;4932469;28;20298;-61
2022/01/08 08:19:45;;;;;;;;;;;5.30;92.90;;;;;;4917127;28;19918;-62
2022/01/08 08:22:11;;;;;;;;;;;5.30;92.90;;;;;;4935625;28;19968;-62
2022/01/08 08:24:36;;;;;;;;;;;5.30;92.90;;;;;;4917393;29;19914;-61
2022/01/08 08:27:02;;;;;;;;;;;5.30;92.90;;;;;;4914200;28;19918;-60
2022/01/08 08:29:27;;;;;;;;;;;5.30;92.90;;;;;;4933781;29;19921;-62
2022/01/08 08:31:53;;;;;;;;;;;5.30;92.80;;;;;;4933939;28;19920;-61
2022/01/08 08:34:18;;;;;;;;;;;5.30;92.80;;;;;;4935711;29;19917;-62
2022/01/08 08:36:44;;;;;;;;;;;5.30;92.80;;;;;;4915418;29;20633;-61
2022/01/08 08:39:09;;;;;;;;;;;5.30;92.70;;;;;;4917843;29;19915;-62
2022/01/08 08:41:35;;;;;;;;;;;5.30;92.60;;;;;;4926390;28;19953;-61
2022/01/08 08:44:00;;;;;;;;;;;5.30;92.50;;;;;;4933085;29;19925;-62
2022/01/08 08:46:25;;;;;;;;;;;5.30;92.50;;;;;;4933495;29;20056;-62
2022/01/08 08:48:53;;;;;;;;;;;5.30;92.50;;;;;;4914924;28;19950;-62
2022/01/08 08:51:18;;;;;;;;;;;5.30;92.70;;;;;;4929256;29;20057;-63
2022/01/08 08:53:44;;;;;;;;;;;5.30;92.40;;;;;;4917560;28;20380;-62
2022/01/08 08:56:09;;;;;;;;;;;5.30;92.30;;;;;;4944232;28;19914;-61
2022/01/08 08:58:34;;;;;;;;;;;5.30;92.30;;;;;;4921139;28;19969;-62
2022/01/08 09:01:00;;;;;;;;;;;5.30;92.30;;;;;;4934861;29;20423;-61
2022/01/08 09:03:25;;;;;;;;;;;5.30;92.20;;;;;;4919186;29;19933;-62
2022/01/08 09:05:51;;;;;;;;;;;5.30;92.10;;;;;;4932391;29;19972;-61
2022/01/08 09:08:16;;;;;;;;;;;5.40;92.10;;;;;;4930302;29;19923;-62
2022/01/08 09:10:42;;;;;;;;;;;5.30;92.10;;;;;;4919120;28;19929;-61
2022/01/08 09:13:07;;;;;;;;;;;5.30;92.00;;;;;;4914125;29;19919;-62
2022/01/08 09:15:36;;;;;;;;;;;5.30;91.90;;;;;;4916009;28;19921;-61
2022/01/08 09:18:02;;;;;;;;;;;5.20;91.90;;;;;;4929437;29;19923;-61
2022/01/08 09:20:28;;;;;;;;;;;5.40;92.00;;;;;;4912396;28;19942;-61
2022/01/08 09:22:53;;;;;;;;;;;5.40;92.00;;;;;;4924541;29;19919;-61
2022/01/08 09:25:19;;;;;;;;;;;5.40;91.90;;;;;;4938977;28;20357;-62
2022/01/08 09:27:44;;;;;;;;;;;5.40;91.90;;;;;;4916675;28;20526;-61
2022/01/08 09:30:10;;;;;;;;;;;5.40;91.80;;;;;;4942034;28;19926;-60
2022/01/08 09:32:35;;;;;;;;;;;5.40;91.80;;;;;;4938242;28;20010;-61
2022/01/08 09:35:00;;;;;;;;;;;5.40;91.90;;;;;;4918825;28;19923;-62
2022/01/08 09:37:26;;;;;;;;;;;5.40;91.80;;;;;;4918181;28;20271;-61
2022/01/08 09:39:51;;;;;;;;;;;5.40;91.80;;;;;;4916768;28;19926;-61
2022/01/08 09:42:17;;;;;;;;;;;5.50;91.90;;;;;;4928894;28;19926;-61
2022/01/08 09:44:44;;;;;;;;;;;5.50;91.90;;;;;;4912484;29;19921;-62
2022/01/08 09:47:10;;;;;;;;;;;5.50;91.80;;;;;;4937504;28;20012;-62
2022/01/08 09:49:36;;;;;;;;;;;5.60;91.90;;;;;;4921364;29;19957;-62
2022/01/08 09:52:03;;;;;;;;;;;5.60;91.90;;;;;;4936362;28;20328;-61
2022/01/08 09:54:29;;;;;;;;;;;5.60;91.80;;;;;;4932408;28;20348;-61
2022/01/08 09:56:54;;;;;;;;;;;5.70;91.90;;;;;;4938773;28;19921;-62
2022/01/08 09:59:21;;;;;;;;;;;5.70;91.90;;;;;;4949118;28;19922;-61
2022/01/08 10:01:52;;;;;;;;;;;5.80;92.00;;;;;;4933324;28;19922;-62
2022/01/08 10:04:22;;;;;;;;;;;5.80;91.90;;;;;;4927536;28;20065;-61
2022/01/08 10:06:47;;;;;;;;;;;5.80;91.80;;;;;;4930986;28;19923;-62
2022/01/08 10:09:13;;;;;;;;;;;5.80;91.90;;;;;;4932122;28;20508;-61
2022/01/08 10:11:40;;;;;;;;;;;5.90;92.00;;;;;;4932907;28;20080;-60
2022/01/08 10:14:14;;;;;;;;;;;5.90;92.00;;;;;;4915957;29;20506;-61
2022/01/08 10:19:27;;;;;;;;;;;5.90;91.90;;;;;;4953968;28;19929;-61
2022/01/08 10:21:52;;;;;;;;;;;6.00;91.90;;;;;;4917647;28;20327;-61
2022/01/08 10:24:23;;;;;;;;;;;6.00;91.90;;;;;;4936897;28;19921;-61
2022/01/08 10:26:50;;;;;;;;;;;6.10;91.90;;;;;;4917490;28;20377;-61
2022/01/08 10:29:17;;;;;;;;;;;6.10;92.00;;;;;;4918247;28;19931;-62
2022/01/08 10:31:43;;;;;;;;;;;6.10;91.90;;;;;;4931197;28;20294;-61
2022/01/08 10:34:12;;;;;;;;;;;6.10;91.90;;;;;;4908532;29;19938;-60
2022/01/08 10:36:40;;;;;;;;;;;6.20;91.90;;;;;;4950002;28;20295;-62
2022/01/08 10:39:09;;;;;;;;;;;6.20;91.90;;;;;;4950241;28;19914;-61
2022/01/08 10:41:37;;;;;;;;;;;6.30;91.90;;;;;;4940642;28;20006;-61
2022/01/08 10:44:16;;;;;;;;;;;6.30;91.90;;;;;;4917811;29;20343;-61
2022/01/08 10:46:57;;;;;;;;;;;6.30;91.90;;;;;;4922418;29;20339;-61
2022/01/08 10:49:26;;;;;;;;;;;6.30;91.90;;;;;;4912653;29;19934;-60
2022/01/08 10:51:54;;;;;;;;;;;6.40;91.90;;;;;;4918300;28;19923;-61
2022/01/08 10:54:20;;;;;;;;;;;6.40;91.90;;;;;;4927807;29;20005;-61
2022/01/08 10:56:46;;;;;;;;;;;6.40;91.90;;;;;;4919541;29;20005;-61
2022/01/08 10:59:15;;;;;;;;;;;6.50;92.00;;;;;;4919646;28;20009;-60
2022/01/08 11:01:42;;;;;;;;;;;6.50;92.10;;;;;;4932964;29;20717;-61
2022/01/08 11:04:08;;;;;;;;;;;6.50;92.10;;;;;;4930621;28;19962;-61
2022/01/08 11:06:50;;;;;;;;;;;6.50;92.10;;;;;;4917127;29;19969;-61
2022/01/08 11:09:16;;;;;;;;;;;6.60;92.40;;;;;;4928000;29;20025;-61
2022/01/08 11:11:42;;;;;;;;;;;6.60;92.30;;;;;;4929504;29;20009;-61
2022/01/08 11:14:08;;;;;;;;;;;6.60;92.20;;;;;;4930215;29;19926;-61
2022/01/08 11:16:34;;;;;;;;;;;6.60;92.20;;;;;;4926979;29;19982;-61
2022/01/08 11:18:59;;;;;;;;;;;6.70;92.40;;;;;;4913874;29;20438;-61
2022/01/08 11:21:27;;;;;;;;;;;6.70;92.40;;;;;;4908896;29;19927;-61
2022/01/08 11:23:52;;;;;;;;;;;6.70;92.30;;;;;;4927950;29;19978;-61
2022/01/08 11:26:18;;;;;;;;;;;6.80;92.30;;;;;;4926947;29;19923;-61
2022/01/08 11:28:44;;;;;;;;;;;6.70;92.30;;;;;;4924028;29;20592;-61
2022/01/08 11:31:11;;;;;;;;;;;6.80;92.30;;;;;;4921145;29;20002;-60
2022/01/08 11:33:41;;;;;;;;;;;6.80;92.20;;;;;;4910593;29;20410;-62
2022/01/08 11:36:07;;;;;;;;;;;6.80;92.10;;;;;;4931993;29;19929;-61
2022/01/08 11:38:32;;;;;;;;;;;6.90;92.10;;;;;;4915598;29;19918;-61
2022/01/08 11:40:58;;;;;;;;;;;6.90;92.00;;;;;;4911745;29;19949;-62
2022/01/08 11:43:24;;;;;;;;;;;6.90;92.00;;;;;;4913453;29;19926;-61
2022/01/08 11:45:53;;;;;;;;;;;6.90;92.00;;;;;;4909925;29;20013;-61
2022/01/08 11:48:28;;;;;;;;;;;6.90;92.00;;;;;;4935565;29;19922;-62
2022/01/08 11:50:54;;;;;;;;;;;6.90;92.00;;;;;;4927901;29;19918;-61
2022/01/08 11:53:22;;;;;;;;;;;6.90;92.00;;;;;;4931234;29;19969;-61
2022/01/08 11:55:49;;;;;;;;;;;7.00;92.00;;;;;;4927814;29;20406;-61
2022/01/08 11:58:26;;;;;;;;;;;7.00;91.90;;;;;;4923926;29;19915;-61
2022/01/08 12:00:58;;;;;;;;;;;7.00;91.80;;;;;;4946171;28;20382;-61
2022/01/08 12:03:39;;;;;;;;;;;7.00;91.70;;;;;;4911196;29;19922;-61
2022/01/08 12:06:21;;;;;;;;;;;7.10;91.70;;;;;;4923298;29;20593;-61
2022/01/08 12:09:20;;;;;;;;;;;7.10;91.50;;;;;;4918455;29;20366;-62
2022/01/08 12:11:52;;;;;;;;;;;7.10;91.50;;;;;;4917619;29;19934;-61
2022/01/08 12:14:18;;;;;;;;;;;7.10;91.40;;;;;;4928702;29;20489;-63
2022/01/08 12:16:44;;;;;;;;;;;7.10;91.50;;;;;;4932201;29;20366;-61
2022/01/08 12:19:26;;;;;;;;;;;7.10;91.50;;;;;;4937224;29;20042;-61
2022/01/08 12:21:51;;;;;;;;;;;7.20;91.50;;;;;;4919318;29;19928;-65
2022/01/08 12:24:19;;;;;;;;;;;7.10;91.50;;;;;;4929757;29;19923;-60
2022/01/08 12:26:45;;;;;;;;;;;7.10;91.50;;;;;;4912927;29;20368;-60
2022/01/08 12:29:10;;;;;;;;;;;7.10;91.50;;;;;;4909526;29;19919;-60
2022/01/08 12:31:42;;;;;;;;;;;7.20;91.40;;;;;;4912013;29;19926;-61
2022/01/08 12:34:25;;;;;;;;;;;7.20;91.30;;;;;;4891590;29;20292;-60
2022/01/08 12:36:51;;;;;;;;;;;7.20;91.30;;;;;;4910391;29;19915;-61
2022/01/08 12:39:17;;;;;;;;;;;7.20;91.30;;;;;;4911611;29;19938;-60
2022/01/08 12:41:42;;;;;;;;;;;7.20;91.30;;;;;;4913263;29;19927;-61
2022/01/08 12:44:37;;;;;;;;;;;7.20;91.30;;;;;;4904949;29;20280;-60
2022/01/08 12:47:02;;;;;;;;;;;7.30;91.20;;;;;;4903650;29;20006;-60
2022/01/08 12:49:28;;;;;;;;;;;7.40;91.20;;;;;;4908068;29;19923;-60
2022/01/08 12:51:55;;;;;;;;;;;7.30;91.10;;;;;;4916901;29;19982;-61
2022/01/08 12:54:20;;;;;;;;;;;7.40;91.10;;;;;;4911054;29;19934;-61
2022/01/08 12:56:49;;;;;;;;;;;7.40;91.10;;;;;;4906840;29;19923;-60
2022/01/08 12:59:15;;;;;;;;;;;7.50;91.10;;;;;;4910576;29;19915;-60
2022/01/08 13:01:41;;;;;;;;;;;7.50;91.10;;;;;;4910797;29;19925;-61
2022/01/08 13:04:15;;;;;;;;;;;7.50;91.10;;;;;;4899501;29;19935;-60
2022/01/08 13:06:40;;;;;;;;;;;7.50;90.90;;;;;;4903489;29;20339;-60
2022/01/08 13:09:07;;;;;;;;;;;7.60;90.90;;;;;;4928660;29;20004;-61
2022/01/08 13:11:33;;;;;;;;;;;7.60;90.90;;;;;;4935271;29;19915;-61
2022/01/08 13:14:00;;;;;;;;;;;7.60;90.80;;;;;;4912594;29;19915;-61
2022/01/08 13:16:36;;;;;;;;;;;7.60;90.60;;;;;;4907411;29;19915;-60
2022/01/08 13:19:01;;;;;;;;;;;7.60;90.60;;;;;;4912518;29;19974;-60
2022/01/08 13:21:31;;;;;;;;;;;7.60;90.50;;;;;;4940107;28;19922;-60
2022/01/08 13:23:57;;;;;;;;;;;7.60;90.40;;;;;;4924850;28;19922;-61
2022/01/08 13:26:31;;;;;;;;;;;7.60;90.30;;;;;;4914555;28;20381;-60
2022/01/08 13:28:57;;;;;;;;;;;7.60;90.40;;;;;;4949867;28;19922;-61
2022/01/08 13:31:39;;;;;;;;;;;7.60;90.40;;;;;;4916827;29;20366;-61
2022/01/08 13:34:04;;;;;;;;;;;7.70;90.20;;;;;;4937762;28;19922;-60
2022/01/08 13:36:30;;;;;;;;;;;7.70;90.20;;;;;;4942975;29;19921;-60
2022/01/08 13:38:55;;;;;;;;;;;7.70;90.10;;;;;;4923299;28;20429;-61
2022/01/08 13:41:20;;;;;;;;;;;7.60;90.00;;;;;;4916787;29;19946;-61
2022/01/08 13:43:59;;;;;;;;;;;7.70;90.00;;;;;;4914263;28;19915;-61
2022/01/08 13:46:26;;;;;;;;;;;7.60;89.90;;;;;;4929415;29;19919;-60
2022/01/08 13:48:51;;;;;;;;;;;7.60;89.90;;;;;;4925443;29;19930;-61
2022/01/08 13:51:18;;;;;;;;;;;7.60;89.60;;;;;;4941741;28;19919;-60
2022/01/08 13:54:03;;;;;;;;;;;7.60;89.40;;;;;;4917389;28;19953;-61
2022/01/08 13:56:28;;;;;;;;;;;7.60;89.30;;;;;;4947989;28;20293;-60
2022/01/08 13:59:10;;;;;;;;;;;7.60;89.30;;;;;;4936357;29;19914;-61
2022/01/08 14:01:43;;;;;;;;;;;7.60;89.50;;;;;;4939020;28;19922;-61
2022/01/08 14:04:09;;;;;;;;;;;7.60;89.30;;;;;;4932081;29;19973;-60
2022/01/08 14:06:34;;;;;;;;;;;7.60;89.30;;;;;;4914009;28;20037;-60
2022/01/08 14:09:00;;;;;;;;;;;7.60;89.20;;;;;;4933416;29;20103;-65
2022/01/08 14:11:26;;;;;;;;;;;7.60;89.20;;;;;;4933470;28;19946;-60
2022/01/08 14:13:53;;;;;;;;;;;7.60;89.10;;;;;;4930254;28;19927;-60
2022/01/08 14:16:25;;;;;;;;;;;7.70;88.80;;;;;;4934094;28;20503;-60
2022/01/08 14:18:51;;;;;;;;;;;7.70;88.70;;;;;;4916479;28;19914;-60
2022/01/08 14:21:17;;;;;;;;;;;7.60;89.10;;;;;;4934892;29;19977;-60
2022/01/08 14:23:42;;;;;;;;;;;7.70;89.00;;;;;;4917730;29;20441;-60
2022/01/08 14:26:12;;;;;;;;;;;7.80;89.20;;;;;;4933002;29;19950;-60
2022/01/08 14:28:37;;;;;;;;;;;7.70;89.00;;;;;;4936624;29;19919;-61
2022/01/08 14:31:17;;;;;;;;;;;7.70;88.90;;;;;;4929106;29;19932;-60
2022/01/08 14:34:02;;;;;;;;;;;7.70;88.90;;;;;;4947459;28;20259;-60
2022/01/08 14:36:48;;;;;;;;;;;7.70;88.80;;;;;;4953504;28;19922;-60
2022/01/08 14:39:14;;;;;;;;;;;7.70;88.90;;;;;;4922754;29;19954;-60
2022/01/08 14:41:42;;;;;;;;;;;7.70;88.90;;;;;;4915904;28;19962;-60
2022/01/08 14:44:07;;;;;;;;;;;7.70;88.60;;;;;;4915281;29;19965;-60
2022/01/08 14:46:32;;;;;;;;;;;7.70;88.30;;;;;;4937597;28;19910;-60
2022/01/08 14:48:58;;;;;;;;;;;7.70;88.60;;;;;;4938954;29;20287;-61